sensor_id;sensor_type;location;lat;lon;timestamp;P1;durP1;ratioP1;P2;durP2;ratioP2
27424;SDS011;15244;49.088;11.886;2024-01-15T00:01:54;51.15;;;24.98;;
27424;SDS011;15244;49.088;11.886;2024-01-15T00:06:55;55.42;;;25.58;;
27424;SDS011;15244;49.088;11.886;2024-01-15T00:11:58;55.67;;;25.92;;
27424;SDS011;15244;49.088;11.886;2024-01-15T00:17:00;52.83;;;24.98;;
27424;SDS011;15244;49.088;11.886;2024-01-15T00:22:02;54.42;;;25.08;;
27424;SDS011;15244;49.088;11.886;2024-01-15T00:27:03;57.03;;;25.23;;
27424;SDS011;15244;49.088;11.886;2024-01-15T00:32:05;53.70;;;24.83;;
27424;SDS011;15244;49.088;11.886;2024-01-15T00:37:07;61.63;;;26.13;;
27424;SDS011;15244;49.088;11.886;2024-01-15T00:42:08;57.40;;;24.45;;
27424;SDS011;15244;49.088;11.886;2024-01-15T00:47:10;64.00;;;25.70;;
27424;SDS011;15244;49.088;11.886;2024-01-15T00:52:12;65.10;;;24.98;;
27424;SDS011;15244;49.088;11.886;2024-01-15T00:57:13;68.05;;;25.88;;
27424;SDS011;15244;49.088;11.886;2024-01-15T01:02:15;69.57;;;25.92;;
27424;SDS011;15244;49.088;11.886;2024-01-15T01:07:17;65.15;;;27.80;;
27424;SDS011;15244;49.088;11.886;2024-01-15T01:12:19;63.28;;;26.05;;
27424;SDS011;15244;49.088;11.886;2024-01-15T01:17:20;57.70;;;23.58;;
27424;SDS011;15244;49.088;11.886;2024-01-15T01:22:22;67.93;;;24.10;;
27424;SDS011;15244;49.088;11.886;2024-01-15T01:27:23;59.35;;;22.27;;
27424;SDS011;15244;49.088;11.886;2024-01-15T01:32:25;53.70;;;22.25;;
27424;SDS011;15244;49.088;11.886;2024-01-15T01:37:27;53.95;;;20.60;;
27424;SDS011;15244;49.088;11.886;2024-01-15T01:42:28;52.45;;;20.67;;
27424;SDS011;15244;49.088;11.886;2024-01-15T01:47:30;51.40;;;19.92;;
27424;SDS011;15244;49.088;11.886;2024-01-15T01:52:33;47.08;;;19.88;;
27424;SDS011;15244;49.088;11.886;2024-01-15T01:57:36;49.97;;;19.50;;
27424;SDS011;15244;49.088;11.886;2024-01-15T02:02:38;52.67;;;20.27;;
27424;SDS011;15244;49.088;11.886;2024-01-15T02:07:40;50.78;;;20.02;;
27424;SDS011;15244;49.088;11.886;2024-01-15T02:12:42;51.28;;;19.95;;
27424;SDS011;15244;49.088;11.886;2024-01-15T02:18:01;51.70;;;18.88;;
27424;SDS011;15244;49.088;11.886;2024-01-15T02:23:09;55.40;;;20.60;;
27424;SDS011;15244;49.088;11.886;2024-01-15T02:33:15;54.40;;;20.13;;
27424;SDS011;15244;49.088;11.886;2024-01-15T02:38:17;51.85;;;21.10;;
27424;SDS011;15244;49.088;11.886;2024-01-15T02:43:19;53.78;;;19.70;;
27424;SDS011;15244;49.088;11.886;2024-01-15T02:48:21;49.03;;;19.15;;
27424;SDS011;15244;49.088;11.886;2024-01-15T02:53:22;42.85;;;18.33;;
27424;SDS011;15244;49.088;11.886;2024-01-15T02:58:24;47.58;;;18.95;;
27424;SDS011;15244;49.088;11.886;2024-01-15T03:03:25;47.13;;;18.40;;
27424;SDS011;15244;49.088;11.886;2024-01-15T03:08:27;41.95;;;17.40;;
27424;SDS011;15244;49.088;11.886;2024-01-15T03:13:30;49.58;;;18.63;;
27424;SDS011;15244;49.088;11.886;2024-01-15T03:18:32;48.28;;;19.10;;
27424;SDS011;15244;49.088;11.886;2024-01-15T03:23:35;45.88;;;17.98;;
27424;SDS011;15244;49.088;11.886;2024-01-15T03:28:36;45.35;;;18.40;;
27424;SDS011;15244;49.088;11.886;2024-01-15T03:33:38;43.92;;;17.52;;
27424;SDS011;15244;49.088;11.886;2024-01-15T03:38:40;38.17;;;16.17;;
27424;SDS011;15244;49.088;11.886;2024-01-15T03:43:43;37.40;;;15.90;;
27424;SDS011;15244;49.088;11.886;2024-01-15T03:48:45;38.35;;;16.08;;
27424;SDS011;15244;49.088;11.886;2024-01-15T03:53:46;39.13;;;16.50;;
27424;SDS011;15244;49.088;11.886;2024-01-15T03:58:48;39.42;;;16.50;;
27424;SDS011;15244;49.088;11.886;2024-01-15T04:03:49;37.80;;;16.35;;
27424;SDS011;15244;49.088;11.886;2024-01-15T04:08:51;34.38;;;14.77;;
27424;SDS011;15244;49.088;11.886;2024-01-15T04:13:53;39.00;;;15.75;;
27424;SDS011;15244;49.088;11.886;2024-01-15T04:18:54;36.28;;;15.43;;
27424;SDS011;15244;49.088;11.886;2024-01-15T04:23:56;33.50;;;14.38;;
27424;SDS011;15244;49.088;11.886;2024-01-15T04:28:58;37.70;;;14.80;;
27424;SDS011;15244;49.088;11.886;2024-01-15T04:34:01;31.52;;;14.38;;
27424;SDS011;15244;49.088;11.886;2024-01-15T04:39:03;27.67;;;13.18;;
27424;SDS011;15244;49.088;11.886;2024-01-15T04:44:06;32.42;;;14.25;;
27424;SDS011;15244;49.088;11.886;2024-01-15T04:49:08;27.60;;;12.65;;
27424;SDS011;15244;49.088;11.886;2024-01-15T04:54:10;28.83;;;13.13;;
27424;SDS011;15244;49.088;11.886;2024-01-15T04:59:13;27.50;;;12.57;;
27424;SDS011;15244;49.088;11.886;2024-01-15T05:04:16;29.42;;;13.90;;
27424;SDS011;15244;49.088;11.886;2024-01-15T05:09:18;30.00;;;13.25;;
27424;SDS011;15244;49.088;11.886;2024-01-15T05:14:20;27.60;;;11.93;;
27424;SDS011;15244;49.088;11.886;2024-01-15T05:19:22;25.73;;;11.55;;
27424;SDS011;15244;49.088;11.886;2024-01-15T05:24:24;34.83;;;16.02;;
27424;SDS011;15244;49.088;11.886;2024-01-15T05:29:28;25.65;;;12.00;;
27424;SDS011;15244;49.088;11.886;2024-01-15T05:34:30;22.17;;;11.27;;
27424;SDS011;15244;49.088;11.886;2024-01-15T05:39:31;27.33;;;12.52;;
27424;SDS011;15244;49.088;11.886;2024-01-15T05:44:33;28.25;;;12.23;;
27424;SDS011;15244;49.088;11.886;2024-01-15T05:49:35;28.35;;;12.63;;
27424;SDS011;15244;49.088;11.886;2024-01-15T05:54:37;28.48;;;13.00;;
27424;SDS011;15244;49.088;11.886;2024-01-15T05:59:39;26.33;;;13.15;;
27424;SDS011;15244;49.088;11.886;2024-01-15T06:04:40;24.08;;;12.60;;
27424;SDS011;15244;49.088;11.886;2024-01-15T06:09:42;20.67;;;10.93;;
27424;SDS011;15244;49.088;11.886;2024-01-15T06:14:44;25.15;;;11.38;;
27424;SDS011;15244;49.088;11.886;2024-01-15T06:19:46;21.55;;;10.70;;
27424;SDS011;15244;49.088;11.886;2024-01-15T06:24:47;30.85;;;12.45;;
27424;SDS011;15244;49.088;11.886;2024-01-15T06:29:49;23.15;;;11.40;;
27424;SDS011;15244;49.088;11.886;2024-01-15T06:34:51;24.67;;;11.00;;
27424;SDS011;15244;49.088;11.886;2024-01-15T06:39:53;24.48;;;11.75;;
27424;SDS011;15244;49.088;11.886;2024-01-15T06:44:55;19.50;;;9.88;;
27424;SDS011;15244;49.088;11.886;2024-01-15T06:49:56;23.13;;;10.07;;
27424;SDS011;15244;49.088;11.886;2024-01-15T06:54:58;17.23;;;9.50;;
27424;SDS011;15244;49.088;11.886;2024-01-15T07:00:00;17.00;;;9.05;;
27424;SDS011;15244;49.088;11.886;2024-01-15T07:05:02;19.08;;;9.38;;
27424;SDS011;15244;49.088;11.886;2024-01-15T07:10:07;15.38;;;8.75;;
27424;SDS011;15244;49.088;11.886;2024-01-15T07:15:09;18.90;;;10.55;;
27424;SDS011;15244;49.088;11.886;2024-01-15T07:20:11;19.35;;;10.32;;
27424;SDS011;15244;49.088;11.886;2024-01-15T07:25:15;18.05;;;10.43;;
27424;SDS011;15244;49.088;11.886;2024-01-15T07:30:17;19.92;;;10.00;;
27424;SDS011;15244;49.088;11.886;2024-01-15T07:35:19;17.17;;;9.05;;
27424;SDS011;15244;49.088;11.886;2024-01-15T07:40:21;19.50;;;9.88;;
27424;SDS011;15244;49.088;11.886;2024-01-15T07:45:22;14.13;;;7.95;;
27424;SDS011;15244;49.088;11.886;2024-01-15T07:50:24;14.05;;;8.40;;
27424;SDS011;15244;49.088;11.886;2024-01-15T07:55:25;13.32;;;7.68;;
27424;SDS011;15244;49.088;11.886;2024-01-15T08:00:28;16.25;;;9.07;;
27424;SDS011;15244;49.088;11.886;2024-01-15T08:05:29;23.10;;;11.32;;
27424;SDS011;15244;49.088;11.886;2024-01-15T08:10:32;18.73;;;10.13;;
27424;SDS011;15244;49.088;11.886;2024-01-15T08:15:35;11.32;;;6.78;;
27424;SDS011;15244;49.088;11.886;2024-01-15T08:20:37;16.17;;;8.35;;
27424;SDS011;15244;49.088;11.886;2024-01-15T08:25:39;13.70;;;7.30;;
27424;SDS011;15244;49.088;11.886;2024-01-15T08:30:41;13.70;;;7.35;;
27424;SDS011;15244;49.088;11.886;2024-01-15T08:35:43;13.45;;;7.43;;
27424;SDS011;15244;49.088;11.886;2024-01-15T08:40:45;13.73;;;7.20;;
27424;SDS011;15244;49.088;11.886;2024-01-15T08:45:48;11.18;;;6.60;;
27424;SDS011;15244;49.088;11.886;2024-01-15T08:50:50;9.93;;;6.80;;
27424;SDS011;15244;49.088;11.886;2024-01-15T08:55:54;14.02;;;7.40;;
27424;SDS011;15244;49.088;11.886;2024-01-15T09:00:56;12.30;;;7.63;;
27424;SDS011;15244;49.088;11.886;2024-01-15T09:05:59;12.45;;;6.95;;
27424;SDS011;15244;49.088;11.886;2024-01-15T09:11:04;11.77;;;6.50;;
27424;SDS011;15244;49.088;11.886;2024-01-15T09:16:07;11.23;;;6.47;;
27424;SDS011;15244;49.088;11.886;2024-01-15T09:21:09;10.27;;;6.30;;
27424;SDS011;15244;49.088;11.886;2024-01-15T09:26:12;12.68;;;6.97;;
27424;SDS011;15244;49.088;11.886;2024-01-15T09:31:14;12.32;;;6.90;;
27424;SDS011;15244;49.088;11.886;2024-01-15T09:36:19;12.10;;;6.97;;
27424;SDS011;15244;49.088;11.886;2024-01-15T09:41:23;12.95;;;6.90;;
27424;SDS011;15244;49.088;11.886;2024-01-15T09:46:26;12.90;;;7.30;;
27424;SDS011;15244;49.088;11.886;2024-01-15T09:51:31;11.02;;;6.78;;
27424;SDS011;15244;49.088;11.886;2024-01-15T09:56:34;13.77;;;7.07;;
27424;SDS011;15244;49.088;11.886;2024-01-15T10:01:37;11.38;;;6.72;;
27424;SDS011;15244;49.088;11.886;2024-01-15T10:06:43;11.90;;;6.75;;
27424;SDS011;15244;49.088;11.886;2024-01-15T10:11:49;11.57;;;6.68;;
27424;SDS011;15244;49.088;11.886;2024-01-15T10:16:52;12.93;;;6.80;;
27424;SDS011;15244;49.088;11.886;2024-01-15T10:21:54;14.27;;;7.45;;
27424;SDS011;15244;49.088;11.886;2024-01-15T10:27:10;13.75;;;7.95;;
27424;SDS011;15244;49.088;11.886;2024-01-15T10:32:13;14.15;;;7.13;;
27424;SDS011;15244;49.088;11.886;2024-01-15T10:37:15;11.88;;;6.55;;
27424;SDS011;15244;49.088;11.886;2024-01-15T10:42:17;12.90;;;6.72;;
27424;SDS011;15244;49.088;11.886;2024-01-15T10:47:22;11.38;;;6.20;;
27424;SDS011;15244;49.088;11.886;2024-01-15T10:52:25;11.18;;;6.13;;
27424;SDS011;15244;49.088;11.886;2024-01-15T10:57:27;8.05;;;6.07;;
27424;SDS011;15244;49.088;11.886;2024-01-15T11:02:29;9.55;;;6.07;;
27424;SDS011;15244;49.088;11.886;2024-01-15T11:07:31;8.15;;;5.30;;
27424;SDS011;15244;49.088;11.886;2024-01-15T11:12:33;6.25;;;5.20;;
27424;SDS011;15244;49.088;11.886;2024-01-15T11:23:01;7.30;;;5.68;;
27424;SDS011;15244;49.088;11.886;2024-01-15T11:28:04;6.45;;;5.10;;
27424;SDS011;15244;49.088;11.886;2024-01-15T11:33:06;6.03;;;5.15;;
27424;SDS011;15244;49.088;11.886;2024-01-15T11:38:09;10.50;;;5.63;;
27424;SDS011;15244;49.088;11.886;2024-01-15T11:43:10;9.35;;;5.43;;
27424;SDS011;15244;49.088;11.886;2024-01-15T11:48:15;8.52;;;6.47;;
27424;SDS011;15244;49.088;11.886;2024-01-15T11:58:50;7.75;;;5.25;;
27424;SDS011;15244;49.088;11.886;2024-01-15T12:03:53;8.10;;;5.68;;
27424;SDS011;15244;49.088;11.886;2024-01-15T12:09:06;10.40;;;6.28;;
27424;SDS011;15244;49.088;11.886;2024-01-15T12:14:09;7.95;;;5.18;;
27424;SDS011;15244;49.088;11.886;2024-01-15T12:19:11;6.45;;;5.40;;
27424;SDS011;15244;49.088;11.886;2024-01-15T12:24:13;7.97;;;5.72;;
27424;SDS011;15244;49.088;11.886;2024-01-15T12:29:17;8.20;;;5.65;;
27424;SDS011;15244;49.088;11.886;2024-01-15T12:34:20;5.47;;;4.68;;
27424;SDS011;15244;49.088;11.886;2024-01-15T12:39:22;7.13;;;5.20;;
27424;SDS011;15244;49.088;11.886;2024-01-15T12:44:24;6.82;;;5.05;;
27424;SDS011;15244;49.088;11.886;2024-01-15T12:49:26;6.55;;;5.10;;
27424;SDS011;15244;49.088;11.886;2024-01-15T12:54:28;6.82;;;5.43;;
27424;SDS011;15244;49.088;11.886;2024-01-15T12:59:30;8.02;;;5.63;;
27424;SDS011;15244;49.088;11.886;2024-01-15T13:04:32;8.60;;;5.60;;
27424;SDS011;15244;49.088;11.886;2024-01-15T13:09:35;9.20;;;6.65;;
27424;SDS011;15244;49.088;11.886;2024-01-15T13:14:37;10.93;;;5.20;;
27424;SDS011;15244;49.088;11.886;2024-01-15T13:19:38;7.32;;;5.43;;
27424;SDS011;15244;49.088;11.886;2024-01-15T13:24:42;8.13;;;5.65;;
27424;SDS011;15244;49.088;11.886;2024-01-15T13:29:45;7.45;;;5.32;;
27424;SDS011;15244;49.088;11.886;2024-01-15T13:34:46;7.45;;;5.13;;
27424;SDS011;15244;49.088;11.886;2024-01-15T13:39:48;6.53;;;4.90;;
27424;SDS011;15244;49.088;11.886;2024-01-15T13:45:09;8.50;;;5.32;;
27424;SDS011;15244;49.088;11.886;2024-01-15T13:50:29;6.70;;;5.25;;
27424;SDS011;15244;49.088;11.886;2024-01-15T13:55:49;6.22;;;4.70;;
27424;SDS011;15244;49.088;11.886;2024-01-15T14:01:10;7.72;;;5.85;;
27424;SDS011;15244;49.088;11.886;2024-01-15T14:06:30;6.40;;;4.90;;
27424;SDS011;15244;49.088;11.886;2024-01-15T14:11:50;9.60;;;5.20;;
27424;SDS011;15244;49.088;11.886;2024-01-15T14:17:11;7.65;;;4.90;;
27424;SDS011;15244;49.088;11.886;2024-01-15T14:22:32;5.35;;;4.38;;
27424;SDS011;15244;49.088;11.886;2024-01-15T14:27:52;6.03;;;4.43;;
27424;SDS011;15244;49.088;11.886;2024-01-15T14:33:13;5.57;;;3.97;;
27424;SDS011;15244;49.088;11.886;2024-01-15T14:38:33;4.43;;;4.03;;
27424;SDS011;15244;49.088;11.886;2024-01-15T14:43:54;5.28;;;4.40;;
27424;SDS011;15244;49.088;11.886;2024-01-15T14:49:15;5.90;;;4.72;;
27424;SDS011;15244;49.088;11.886;2024-01-15T14:54:37;5.28;;;4.07;;
27424;SDS011;15244;49.088;11.886;2024-01-15T14:59:57;4.68;;;4.10;;
27424;SDS011;15244;49.088;11.886;2024-01-15T15:05:17;5.25;;;4.30;;
27424;SDS011;15244;49.088;11.886;2024-01-15T15:10:37;5.43;;;4.22;;
27424;SDS011;15244;49.088;11.886;2024-01-15T15:16:00;5.13;;;4.63;;
27424;SDS011;15244;49.088;11.886;2024-01-15T15:21:20;6.57;;;4.38;;
27424;SDS011;15244;49.088;11.886;2024-01-15T15:26:41;5.03;;;4.32;;
27424;SDS011;15244;49.088;11.886;2024-01-15T15:32:01;5.97;;;3.85;;
27424;SDS011;15244;49.088;11.886;2024-01-15T15:37:22;5.00;;;4.07;;
27424;SDS011;15244;49.088;11.886;2024-01-15T15:42:42;4.50;;;4.10;;
27424;SDS011;15244;49.088;11.886;2024-01-15T15:48:03;4.63;;;4.18;;
27424;SDS011;15244;49.088;11.886;2024-01-15T15:53:23;5.15;;;4.65;;
27424;SDS011;15244;49.088;11.886;2024-01-15T15:58:45;4.47;;;4.07;;
27424;SDS011;15244;49.088;11.886;2024-01-15T16:04:04;4.35;;;3.95;;
27424;SDS011;15244;49.088;11.886;2024-01-15T16:09:06;4.72;;;4.25;;
27424;SDS011;15244;49.088;11.886;2024-01-15T16:14:08;4.68;;;4.10;;
27424;SDS011;15244;49.088;11.886;2024-01-15T16:19:11;5.10;;;4.07;;
27424;SDS011;15244;49.088;11.886;2024-01-15T16:24:32;4.80;;;4.40;;
27424;SDS011;15244;49.088;11.886;2024-01-15T16:29:51;4.18;;;3.78;;
27424;SDS011;15244;49.088;11.886;2024-01-15T16:34:53;4.68;;;3.70;;
27424;SDS011;15244;49.088;11.886;2024-01-15T16:39:54;4.32;;;4.03;;
27424;SDS011;15244;49.088;11.886;2024-01-15T16:44:56;4.82;;;3.50;;
27424;SDS011;15244;49.088;11.886;2024-01-15T16:49:57;4.15;;;3.72;;
27424;SDS011;15244;49.088;11.886;2024-01-15T16:54:59;5.63;;;4.72;;
27424;SDS011;15244;49.088;11.886;2024-01-15T17:00:01;7.00;;;5.03;;
27424;SDS011;15244;49.088;11.886;2024-01-15T17:05:04;7.15;;;5.13;;
27424;SDS011;15244;49.088;11.886;2024-01-15T17:10:06;6.38;;;4.82;;
27424;SDS011;15244;49.088;11.886;2024-01-15T17:15:09;6.40;;;4.57;;
27424;SDS011;15244;49.088;11.886;2024-01-15T17:20:12;4.30;;;3.90;;
27424;SDS011;15244;49.088;11.886;2024-01-15T17:25:14;5.30;;;4.78;;
27424;SDS011;15244;49.088;11.886;2024-01-15T17:30:16;5.10;;;4.70;;
27424;SDS011;15244;49.088;11.886;2024-01-15T17:35:18;6.72;;;5.22;;
27424;SDS011;15244;49.088;11.886;2024-01-15T17:40:20;6.22;;;5.40;;
27424;SDS011;15244;49.088;11.886;2024-01-15T17:45:23;5.65;;;5.13;;
27424;SDS011;15244;49.088;11.886;2024-01-15T17:50:27;6.07;;;5.55;;
27424;SDS011;15244;49.088;11.886;2024-01-15T17:55:29;6.43;;;5.82;;
27424;SDS011;15244;49.088;11.886;2024-01-15T18:00:31;6.88;;;6.20;;
27424;SDS011;15244;49.088;11.886;2024-01-15T18:05:32;6.00;;;5.50;;
27424;SDS011;15244;49.088;11.886;2024-01-15T18:10:34;16.35;;;10.25;;
27424;SDS011;15244;49.088;11.886;2024-01-15T18:15:39;8.73;;;7.82;;
27424;SDS011;15244;49.088;11.886;2024-01-15T18:20:41;6.88;;;6.18;;
27424;SDS011;15244;49.088;11.886;2024-01-15T18:25:44;9.07;;;6.95;;
27424;SDS011;15244;49.088;11.886;2024-01-15T18:30:46;7.97;;;7.13;;
27424;SDS011;15244;49.088;11.886;2024-01-15T18:35:47;9.77;;;7.25;;
27424;SDS011;15244;49.088;11.886;2024-01-15T18:40:49;8.27;;;7.20;;
27424;SDS011;15244;49.088;11.886;2024-01-15T18:45:51;8.15;;;7.13;;
27424;SDS011;15244;49.088;11.886;2024-01-15T18:50:53;9.23;;;7.35;;
27424;SDS011;15244;49.088;11.886;2024-01-15T18:55:55;8.73;;;6.97;;
27424;SDS011;15244;49.088;11.886;2024-01-15T19:00:59;12.40;;;7.95;;
27424;SDS011;15244;49.088;11.886;2024-01-15T19:06:01;9.88;;;7.28;;
27424;SDS011;15244;49.088;11.886;2024-01-15T19:11:02;9.65;;;7.57;;
27424;SDS011;15244;49.088;11.886;2024-01-15T19:16:05;8.77;;;7.32;;
27424;SDS011;15244;49.088;11.886;2024-01-15T19:21:06;9.27;;;7.00;;
27424;SDS011;15244;49.088;11.886;2024-01-15T19:26:15;8.23;;;7.32;;
27424;SDS011;15244;49.088;11.886;2024-01-15T19:31:18;8.32;;;7.38;;
27424;SDS011;15244;49.088;11.886;2024-01-15T19:36:21;6.88;;;6.28;;
27424;SDS011;15244;49.088;11.886;2024-01-15T19:41:24;8.75;;;7.13;;
27424;SDS011;15244;49.088;11.886;2024-01-15T19:46:25;8.40;;;7.20;;
27424;SDS011;15244;49.088;11.886;2024-01-15T19:51:27;9.50;;;6.78;;
27424;SDS011;15244;49.088;11.886;2024-01-15T19:56:29;8.40;;;7.20;;
27424;SDS011;15244;49.088;11.886;2024-01-15T20:01:31;9.63;;;7.30;;
27424;SDS011;15244;49.088;11.886;2024-01-15T20:06:34;6.95;;;6.18;;
27424;SDS011;15244;49.088;11.886;2024-01-15T20:11:36;8.23;;;6.03;;
27424;SDS011;15244;49.088;11.886;2024-01-15T20:16:38;7.18;;;6.38;;
27424;SDS011;15244;49.088;11.886;2024-01-15T20:21:40;7.85;;;7.05;;
27424;SDS011;15244;49.088;11.886;2024-01-15T20:26:41;6.93;;;6.15;;
27424;SDS011;15244;49.088;11.886;2024-01-15T20:31:43;6.40;;;5.65;;
27424;SDS011;15244;49.088;11.886;2024-01-15T20:36:48;11.15;;;6.40;;
27424;SDS011;15244;49.088;11.886;2024-01-15T20:41:52;9.85;;;6.85;;
27424;SDS011;15244;49.088;11.886;2024-01-15T20:46:54;10.68;;;6.45;;
27424;SDS011;15244;49.088;11.886;2024-01-15T20:51:55;8.85;;;6.30;;
27424;SDS011;15244;49.088;11.886;2024-01-15T20:56:57;7.78;;;5.75;;
27424;SDS011;15244;49.088;11.886;2024-01-15T21:02:02;8.60;;;6.00;;
27424;SDS011;15244;49.088;11.886;2024-01-15T21:07:05;8.98;;;6.88;;
27424;SDS011;15244;49.088;11.886;2024-01-15T21:12:08;8.27;;;6.97;;
27424;SDS011;15244;49.088;11.886;2024-01-15T21:17:12;10.85;;;6.60;;
27424;SDS011;15244;49.088;11.886;2024-01-15T21:22:13;7.63;;;6.68;;
27424;SDS011;15244;49.088;11.886;2024-01-15T21:27:15;8.80;;;6.72;;
27424;SDS011;15244;49.088;11.886;2024-01-15T21:32:20;9.38;;;6.85;;
27424;SDS011;15244;49.088;11.886;2024-01-15T21:37:22;8.55;;;6.68;;
27424;SDS011;15244;49.088;11.886;2024-01-15T21:42:24;10.40;;;7.07;;
27424;SDS011;15244;49.088;11.886;2024-01-15T21:47:26;23.27;;;11.10;;
27424;SDS011;15244;49.088;11.886;2024-01-15T21:52:30;9.23;;;6.95;;
27424;SDS011;15244;49.088;11.886;2024-01-15T21:57:32;8.95;;;6.45;;
27424;SDS011;15244;49.088;11.886;2024-01-15T22:02:33;8.30;;;6.43;;
27424;SDS011;15244;49.088;11.886;2024-01-15T22:07:41;10.10;;;6.43;;
27424;SDS011;15244;49.088;11.886;2024-01-15T22:12:43;9.82;;;7.22;;
27424;SDS011;15244;49.088;11.886;2024-01-15T22:17:45;14.18;;;8.63;;
27424;SDS011;15244;49.088;11.886;2024-01-15T22:22:47;12.05;;;7.85;;
27424;SDS011;15244;49.088;11.886;2024-01-15T22:27:49;8.48;;;6.72;;
27424;SDS011;15244;49.088;11.886;2024-01-15T22:32:52;10.15;;;6.60;;
27424;SDS011;15244;49.088;11.886;2024-01-15T22:37:53;8.73;;;6.47;;
27424;SDS011;15244;49.088;11.886;2024-01-15T22:42:56;7.40;;;6.38;;
27424;SDS011;15244;49.088;11.886;2024-01-15T22:47:58;7.65;;;6.60;;
27424;SDS011;15244;49.088;11.886;2024-01-15T22:53:01;8.07;;;6.60;;
27424;SDS011;15244;49.088;11.886;2024-01-15T22:58:03;8.40;;;6.28;;
27424;SDS011;15244;49.088;11.886;2024-01-15T23:03:04;7.18;;;6.20;;
27424;SDS011;15244;49.088;11.886;2024-01-15T23:08:06;10.15;;;6.38;;
27424;SDS011;15244;49.088;11.886;2024-01-15T23:13:08;10.50;;;6.35;;
27424;SDS011;15244;49.088;11.886;2024-01-15T23:18:10;10.25;;;6.50;;
27424;SDS011;15244;49.088;11.886;2024-01-15T23:23:15;6.25;;;5.28;;
27424;SDS011;15244;49.088;11.886;2024-01-15T23:28:16;7.18;;;5.38;;
27424;SDS011;15244;49.088;11.886;2024-01-15T23:33:18;6.65;;;5.18;;
27424;SDS011;15244;49.088;11.886;2024-01-15T23:38:20;6.20;;;5.60;;
27424;SDS011;15244;49.088;11.886;2024-01-15T23:43:22;5.05;;;4.65;;
27424;SDS011;15244;49.088;11.886;2024-01-15T23:48:24;7.13;;;5.20;;
27424;SDS011;15244;49.088;11.886;2024-01-15T23:53:25;5.65;;;5.07;;
27424;SDS011;15244;49.088;11.886;2024-01-15T23:58:27;7.82;;;5.05;;
